Time;durP1;ratioP1;P1;durP2;ratioP2;P2;SDS_P1;SDS_P2;PMS_P1;PMS_P2;Temp;Humidity;BMP_temperature;BMP_pressure;BME280_temperature;BME280_humidity;BME280_pressure;Samples;Min_cycle;Max_cycle;Signal;HPM_P1;HPM_P2
2022/12/15 00:39:04;;;;;;;32.10;18.67;;;;;;;5.27;100.00;94999.91;5057746;28;20530;-46
2022/12/15 00:41:32;;;;;;;33.05;19.23;;;;;;;5.18;100.00;94998.97;5054671;28;20076;-49
2022/12/15 00:44:00;;;;;;;29.20;17.95;;;;;;;5.13;100.00;94996.00;5061295;28;20479;-42
2022/12/15 01:22:33;;;;;;;33.38;19.20;;;;;;;5.14;100.00;95041.22;5058080;28;20084;-41
2022/12/15 01:25:01;;;;;;;36.90;21.15;;;;;;;5.21;100.00;95037.88;5065457;28;20080;-47
2022/12/15 01:27:29;;;;;;;37.72;21.33;;;;;;;5.26;100.00;95042.66;5058371;28;20080;-47
2022/12/15 01:29:57;;;;;;;36.40;21.05;;;;;;;5.25;100.00;95043.63;5057476;28;20679;-48
2022/12/15 01:32:26;;;;;;;37.38;21.90;;;;;;;5.26;100.00;95055.72;5053040;28;20088;-44
2022/12/15 01:34:56;;;;;;;36.45;21.33;;;;;;;5.28;100.00;95048.56;5061134;28;20072;-44
2022/12/15 01:37:24;;;;;;;36.72;21.70;;;;;;;5.32;100.00;95054.31;5061480;28;20872;-45
2022/12/15 01:42:39;;;;;;;35.83;21.30;;;;;;;5.29;100.00;95058.03;5063454;28;20106;-47
2022/12/15 01:45:52;;;;;;;34.30;21.02;;;;;;;5.34;100.00;95061.06;5057594;28;20091;-39
2022/12/15 01:48:26;;;;;;;36.08;21.02;;;;;;;5.21;100.00;95060.56;5034630;28;20510;-45
2022/12/15 01:51:05;;;;;;;36.00;21.08;;;;;;;5.12;100.00;95049.19;5056484;28;20092;-44
2022/12/15 01:53:37;;;;;;;38.33;21.90;;;;;;;5.06;100.00;95059.41;5059700;28;20088;-48
2022/12/15 01:56:08;;;;;;;37.40;22.13;;;;;;;4.98;100.00;95060.94;5060645;28;20083;-42
2022/12/15 01:58:37;;;;;;;38.38;22.40;;;;;;;5.07;100.00;95063.69;5052642;28;20048;-49
2022/12/15 02:01:06;;;;;;;37.42;22.20;;;;;;;5.18;100.00;95056.47;5060471;28;20076;-48
2022/12/15 02:03:34;;;;;;;39.28;23.67;;;;;;;5.22;100.00;95064.81;5059826;28;20087;-49
2022/12/15 02:06:05;;;;;;;37.67;22.02;;;;;;;5.12;100.00;95062.25;5054812;28;21858;-45
2022/12/15 02:08:33;;;;;;;37.10;22.95;;;;;;;4.97;100.00;95068.94;5061886;28;20649;-46
2022/12/15 02:11:12;;;;;;;37.80;22.45;;;;;;;4.95;100.00;95063.84;5061540;28;20182;-43
2022/12/15 02:13:45;;;;;;;36.25;21.70;;;;;;;4.99;100.00;95069.63;5056518;28;20086;-43
2022/12/15 02:16:19;;;;;;;36.17;22.17;;;;;;;4.83;100.00;95065.03;5058065;28;20081;-43
2022/12/15 02:18:57;;;;;;;39.97;22.77;;;;;;;4.82;100.00;95065.16;5060700;28;20111;-43
2022/12/15 02:21:30;;;;;;;39.95;23.48;;;;;;;4.80;100.00;95065.31;5056255;28;20541;-44
2022/12/15 02:24:30;;;;;;;40.35;23.67;;;;;;;4.72;100.00;95066.03;5063082;28;20084;-42
2022/12/15 02:27:13;;;;;;;38.53;22.80;;;;;;;4.84;100.00;95076.28;5051561;28;20459;-42
2022/12/15 02:30:10;;;;;;;41.53;23.48;;;;;;;4.52;100.00;95082.72;5056230;28;20064;-42
2022/12/15 02:32:43;;;;;;;42.22;23.30;;;;;;;4.83;100.00;95087.72;5057801;28;20095;-42
2022/12/15 02:35:16;;;;;;;42.15;23.85;;;;;;;4.90;100.00;95091.38;5053513;28;20091;-44
2022/12/15 02:37:45;;;;;;;42.88;23.98;;;;;;;4.92;100.00;95098.13;5054537;28;20096;-46
2022/12/15 02:40:17;;;;;;;39.55;23.77;;;;;;;4.94;100.00;95098.78;5053869;28;20080;-47
2022/12/15 02:45:46;;;;;;;46.00;24.13;;;;;;;4.52;100.00;95111.44;5430459;22;20042;-43
2022/12/15 02:48:23;;;;;;;40.67;23.30;;;;;;;4.83;100.00;95119.03;4952539;28;20070;-45
2022/12/15 02:51:00;;;;;;;42.45;24.30;;;;;;;5.04;100.00;95114.44;4931960;28;20101;-48
2022/12/15 02:53:42;;;;;;;42.15;24.27;;;;;;;5.16;100.00;95125.50;4935677;28;20075;-39
2022/12/15 02:56:17;;;;;;;45.63;24.88;;;;;;;5.19;100.00;95133.06;4929116;28;20084;-44
2022/12/15 02:58:55;;;;;;;47.58;25.83;;;;;;;5.17;100.00;95124.56;4922318;29;20083;-41
2022/12/15 03:01:27;;;;;;;44.15;24.65;;;;;;;5.16;100.00;95130.72;4919035;29;20092;-43
2022/12/15 03:03:57;;;;;;;46.42;24.85;;;;;;;5.24;100.00;95130.84;4927073;29;20083;-42
2022/12/15 03:06:26;;;;;;;55.08;27.17;;;;;;;5.35;100.00;95129.81;4925286;29;20616;-40
2022/12/15 03:08:55;;;;;;;44.25;25.10;;;;;;;5.23;100.00;95130.03;4927783;29;20091;-43
2022/12/15 03:11:23;;;;;;;43.08;24.98;;;;;;;5.31;100.00;95134.53;4926494;29;20080;-40
2022/12/15 03:13:52;;;;;;;44.30;24.98;;;;;;;5.23;100.00;95134.44;4923614;29;20083;-41
2022/12/15 03:16:20;;;;;;;44.72;24.25;;;;;;;5.18;100.00;95139.25;4923169;29;20495;-45
2022/12/15 03:18:51;;;;;;;41.28;25.23;;;;;;;5.32;100.00;95136.16;4931274;29;20095;-45
2022/12/15 03:21:19;;;;;;;39.70;23.35;;;;;;;5.40;100.00;95138.03;4928739;29;20091;-44
2022/12/15 03:23:48;;;;;;;42.38;24.42;;;;;;;5.39;100.00;95142.44;4925006;29;20554;-44
2022/12/15 03:26:16;;;;;;;44.75;25.17;;;;;;;5.23;100.00;95150.94;4929359;29;20083;-40
2022/12/15 03:28:44;;;;;;;41.95;23.50;;;;;;;5.33;100.00;95148.25;4930106;29;20083;-43
2022/12/15 03:31:13;;;;;;;39.28;23.55;;;;;;;5.12;100.00;95152.88;4920472;29;20091;-40
2022/12/15 03:33:41;;;;;;;41.45;23.50;;;;;;;5.16;100.00;95155.09;4924451;29;20558;-42
2022/12/15 03:36:11;;;;;;;42.15;22.98;;;;;;;5.14;100.00;95140.50;4926085;29;20087;-43
2022/12/15 03:38:39;;;;;;;43.93;24.93;;;;;;;4.90;100.00;95146.25;4926121;29;20098;-42
2022/12/15 03:41:07;;;;;;;41.05;23.13;;;;;;;4.91;100.00;95148.69;4927103;29;20949;-48
2022/12/15 03:43:35;;;;;;;40.70;23.35;;;;;;;4.87;100.00;95143.91;4923303;29;20102;-42
2022/12/15 03:46:04;;;;;;;40.38;23.35;;;;;;;4.77;100.00;95156.97;4928124;29;20088;-41
2022/12/15 03:48:32;;;;;;;36.50;21.17;;;;;;;4.68;100.00;95153.44;4923854;29;20498;-43
2022/12/15 03:51:00;;;;;;;32.08;19.05;;;;;;;4.46;100.00;95162.41;4930460;29;20075;-41
2022/12/15 03:53:30;;;;;;;41.33;23.15;;;;;;;4.46;100.00;95165.00;4927870;29;20096;-39
2022/12/15 03:55:59;;;;;;;36.70;21.20;;;;;;;4.36;100.00;95160.75;4927440;29;20546;-40
2022/12/15 03:58:27;;;;;;;37.53;22.55;;;;;;;4.52;100.00;95161.84;4931766;29;20090;-41
2022/12/15 04:00:55;;;;;;;38.90;21.13;;;;;;;4.39;100.00;95173.53;4931408;29;20079;-43
2022/12/15 04:03:24;;;;;;;38.67;21.80;;;;;;;4.63;100.00;95154.81;4928940;29;20300;-40
2022/12/15 04:05:52;;;;;;;44.28;23.65;;;;;;;4.69;100.00;95169.94;4935879;29;20079;-43
2022/12/15 04:08:25;;;;;;;40.85;23.63;;;;;;;4.65;100.00;95169.38;4932216;29;20084;-41
2022/12/15 04:10:55;;;;;;;43.88;23.98;;;;;;;4.60;100.00;95181.19;4930981;29;20075;-43
2022/12/15 04:13:23;;;;;;;41.45;22.95;;;;;;;4.47;100.00;95179.72;4932307;29;20089;-42
2022/12/15 04:15:51;;;;;;;41.90;23.48;;;;;;;4.37;100.00;95178.91;4926871;29;20067;-40
2022/12/15 04:18:20;;;;;;;44.50;24.85;;;;;;;4.59;100.00;95184.78;4930061;29;20114;-46
2022/12/15 04:20:48;;;;;;;43.05;24.65;;;;;;;4.74;100.00;95188.59;4920614;29;20083;-41
2022/12/15 04:23:17;;;;;;;43.10;25.65;;;;;;;4.61;100.00;95190.66;4924683;29;20460;-48
2022/12/15 05:32:28;;;;;;;45.67;25.42;;;;;;;3.08;100.00;95233.59;4926597;29;20075;-40
2022/12/15 05:34:57;;;;;;;46.00;25.40;;;;;;;3.31;100.00;95242.09;4925408;29;20087;-46
2022/12/15 05:37:26;;;;;;;41.05;23.48;;;;;;;3.53;100.00;95236.66;4920930;29;20088;-46
2022/12/15 05:39:54;;;;;;;43.92;25.83;;;;;;;3.24;100.00;95246.97;4924841;29;20076;-41
2022/12/15 05:42:22;;;;;;;44.75;24.83;;;;;;;3.68;100.00;95244.97;4923236;29;20481;-45
2022/12/15 05:44:50;;;;;;;41.42;23.73;;;;;;;3.22;100.00;95251.50;4926162;29;20095;-44
2022/12/15 05:47:19;;;;;;;44.35;24.73;;;;;;;3.26;100.00;95249.44;4923778;29;20472;-46
2022/12/15 05:49:48;;;;;;;45.25;24.75;;;;;;;3.52;100.00;95248.06;4922486;29;20508;-43
2022/12/15 05:52:17;;;;;;;43.65;24.42;;;;;;;3.92;100.00;95249.84;4927522;29;20118;-43
2022/12/15 05:54:46;;;;;;;41.03;24.03;;;;;;;3.65;100.00;95262.63;4920102;29;20744;-41
2022/12/15 05:57:14;;;;;;;43.95;24.23;;;;;;;3.67;100.00;95256.34;4914065;29;20507;-41
2022/12/15 05:59:42;;;;;;;45.40;24.23;;;;;;;3.54;100.00;95251.38;4922280;29;20070;-40
2022/12/15 06:02:10;;;;;;;42.95;22.90;;;;;;;3.33;100.00;95261.00;4925857;29;20098;-40
2022/12/15 06:04:39;;;;;;;43.35;24.65;;;;;;;3.67;100.00;95264.16;4915868;29;20079;-41
2022/12/15 06:07:08;;;;;;;44.25;23.77;;;;;;;3.68;100.00;95273.66;4921946;29;20084;-40
2022/12/15 06:09:38;;;;;;;42.28;23.50;;;;;;;3.60;100.00;95280.47;4922781;29;20083;-48
2022/12/15 06:12:06;;;;;;;41.70;23.38;;;;;;;3.49;100.00;95279.59;4916936;29;20083;-44
2022/12/15 06:14:35;;;;;;;47.33;25.45;;;;;;;3.59;100.00;95271.81;4924189;29;20589;-42
2022/12/15 06:17:03;;;;;;;42.83;23.38;;;;;;;3.59;100.00;95278.81;4929588;29;20094;-39
2022/12/15 06:19:31;;;;;;;42.42;23.55;;;;;;;3.54;100.00;95279.19;4917948;29;20497;-41
2022/12/15 06:22:00;;;;;;;46.17;24.67;;;;;;;3.71;100.00;95286.41;4926187;29;20083;-43
2022/12/15 06:24:28;;;;;;;45.33;23.92;;;;;;;3.51;100.00;95290.72;4918153;29;20558;-41
2022/12/15 06:26:58;;;;;;;50.00;27.02;;;;;;;3.35;100.00;95297.34;4920758;29;20087;-42
2022/12/15 06:29:26;;;;;;;49.80;25.87;;;;;;;3.28;100.00;95297.06;4918256;29;20080;-43
2022/12/15 06:31:54;;;;;;;49.22;26.00;;;;;;;3.54;100.00;95295.69;4921547;29;20083;-45
2022/12/15 06:34:23;;;;;;;49.10;26.38;;;;;;;3.54;100.00;95303.50;4922869;29;20087;-40
2022/12/15 06:36:51;;;;;;;47.13;25.20;;;;;;;3.11;100.00;95313.25;4921739;29;21804;-42
2022/12/15 06:39:20;;;;;;;47.63;24.80;;;;;;;3.15;100.00;95302.44;4918111;29;20098;-44
2022/12/15 06:41:48;;;;;;;46.50;24.35;;;;;;;3.28;100.00;95302.25;4920861;29;20091;-41
2022/12/15 06:44:18;;;;;;;41.40;22.52;;;;;;;3.09;100.00;95306.38;4923857;29;20539;-42
2022/12/15 06:46:46;;;;;;;50.63;25.88;;;;;;;3.13;100.00;95314.75;4925500;29;20527;-43
2022/12/15 06:49:14;;;;;;;45.10;24.20;;;;;;;3.41;100.00;95315.91;4919800;29;20092;-41
2022/12/15 06:51:43;;;;;;;47.45;26.02;;;;;;;3.38;100.00;95317.94;4917677;29;20098;-40
2022/12/15 06:54:12;;;;;;;46.63;25.95;;;;;;;3.15;100.00;95327.66;4913178;29;20083;-43
2022/12/15 06:56:41;;;;;;;46.45;25.25;;;;;;;3.41;100.00;95328.13;4920534;29;20087;-42
2022/12/15 06:59:11;;;;;;;50.83;27.15;;;;;;;3.33;100.00;95326.94;4916875;29;20079;-43
2022/12/15 07:01:41;;;;;;;52.10;26.67;;;;;;;3.07;100.00;95331.75;4922864;29;20083;-46
2022/12/15 07:04:10;;;;;;;53.00;26.15;;;;;;;2.98;100.00;95334.28;4919772;29;20614;-40
2022/12/15 07:06:39;;;;;;;57.55;26.95;;;;;;;3.36;100.00;95335.47;4926365;29;20582;-43
2022/12/15 07:09:12;;;;;;;52.88;29.30;;;;;;;3.45;100.00;95332.94;4919601;29;20086;-40
2022/12/15 07:11:40;;;;;;;52.65;27.45;;;;;;;3.42;100.00;95341.00;4917704;29;20087;-42
2022/12/15 07:14:09;;;;;;;46.83;27.60;;;;;;;3.23;100.00;95344.31;4922398;29;20088;-40
2022/12/15 07:16:37;;;;;;;48.42;25.70;;;;;;;3.32;100.00;95346.16;4919263;29;20088;-42
2022/12/15 07:19:10;;;;;;;43.55;24.13;;;;;;;3.75;100.00;95339.94;4922877;28;20082;-41
2022/12/15 07:21:39;;;;;;;49.92;25.98;;;;;;;3.41;100.00;95341.16;4923218;29;20095;-43
2022/12/15 07:24:10;;;;;;;51.03;26.83;;;;;;;3.30;100.00;95337.66;4923298;29;20118;-41
2022/12/15 07:26:38;;;;;;;48.00;25.17;;;;;;;3.17;100.00;95339.63;4918152;29;20080;-40
2022/12/15 07:29:06;;;;;;;51.55;27.45;;;;;;;3.30;100.00;95344.63;4928150;29;20075;-44
2022/12/15 07:31:34;;;;;;;50.15;26.08;;;;;;;3.76;100.00;95352.03;4925347;29;20095;-43
2022/12/15 07:34:03;;;;;;;48.72;27.80;;;;;;;3.43;100.00;95350.47;4927858;29;20087;-44
2022/12/15 07:36:33;;;;;;;48.65;26.52;;;;;;;3.75;100.00;95365.16;4923645;29;20578;-41
2022/12/15 07:39:03;;;;;;;51.40;29.35;;;;;;;3.54;100.00;95370.41;4923264;29;20083;-44
2022/12/15 07:41:32;;;;;;;52.28;27.98;;;;;;;3.62;100.00;95364.56;4922365;29;20087;-43
2022/12/15 07:44:01;;;;;;;51.88;27.08;;;;;;;3.93;100.00;95347.97;4924561;29;20091;-40
2022/12/15 07:46:29;;;;;;;55.58;28.60;;;;;;;4.01;100.00;95340.31;4920820;29;20095;-45
2022/12/15 07:48:58;;;;;;;45.30;25.95;;;;;;;3.87;100.00;95345.88;4922988;29;20086;-43
2022/12/15 07:51:26;;;;;;;53.05;26.92;;;;;;;3.86;100.00;95348.63;4924511;29;20095;-42
2022/12/15 07:53:56;;;;;;;50.10;27.08;;;;;;;3.80;100.00;95337.75;4921328;29;20087;-47
2022/12/15 07:56:24;;;;;;;51.50;27.07;;;;;;;3.76;100.00;95335.56;4920035;29;20087;-42
2022/12/15 07:58:53;;;;;;;43.85;24.77;;;;;;;3.75;100.00;95324.31;4921180;29;20090;-41
2022/12/15 08:01:21;;;;;;;46.92;25.90;;;;;;;3.80;100.00;95327.34;4922595;29;20083;-44
2022/12/15 08:03:49;;;;;;;43.85;23.70;;;;;;;3.66;100.00;95322.47;4924144;29;20098;-44
2022/12/15 08:06:18;;;;;;;48.58;27.00;;;;;;;3.74;100.00;95314.81;4927313;29;20083;-45
2022/12/15 08:08:46;;;;;;;50.35;25.48;;;;;;;4.02;100.00;95315.88;4926802;29;20099;-44
2022/12/15 08:11:21;;;;;;;48.55;25.98;;;;;;;4.91;100.00;95318.47;4923759;29;20083;-45
2022/12/15 08:13:49;;;;;;;52.83;26.52;;;;;;;4.55;100.00;95312.16;4922104;29;20083;-40
2022/12/15 08:16:38;;;;;;;46.47;24.90;;;;;;;4.43;100.00;95316.66;4923016;29;20559;-45
2022/12/15 08:19:09;;;;;;;48.40;26.08;;;;;;;4.15;100.00;95320.84;4920379;29;20464;-40
2022/12/15 08:21:39;;;;;;;46.70;23.65;;;;;;;4.38;100.00;95334.53;4927215;29;20082;-43
2022/12/15 08:24:07;;;;;;;50.88;27.38;;;;;;;4.14;100.00;95344.47;4928672;29;20079;-45
2022/12/15 08:26:38;;;;;;;47.72;26.85;;;;;;;4.25;100.00;95353.03;4922801;29;20079;-44
2022/12/15 08:29:07;;;;;;;50.97;27.98;;;;;;;4.62;100.00;95349.00;4927644;29;20075;-45
2022/12/15 08:31:56;;;;;;;47.33;26.97;;;;;;;4.78;100.00;95348.44;4932831;29;20071;-41
2022/12/15 08:34:24;;;;;;;46.53;26.20;;;;;;;5.09;100.00;95363.00;4925724;29;20819;-46
2022/12/15 08:36:54;;;;;;;43.75;23.50;;;;;;;5.90;100.00;95362.59;4924659;29;21003;-45
2022/12/15 08:39:22;;;;;;;44.33;25.42;;;;;;;5.79;100.00;95371.47;4924546;29;20080;-43
2022/12/15 08:41:52;;;;;;;46.25;26.08;;;;;;;6.05;100.00;95374.28;4928453;29;20165;-44
2022/12/15 08:44:21;;;;;;;51.97;27.80;;;;;;;5.32;100.00;95384.47;4928510;29;20079;-43
2022/12/15 08:46:50;;;;;;;49.35;28.73;;;;;;;5.69;100.00;95388.97;4923963;29;20630;-40
2022/12/15 08:49:18;;;;;;;44.42;26.08;;;;;;;5.58;100.00;95395.19;4924186;29;20075;-48
2022/12/15 08:51:50;;;;;;;47.47;27.15;;;;;;;5.76;100.00;95395.28;4926860;29;20094;-45
2022/12/15 08:54:19;;;;;;;43.55;26.50;;;;;;;5.89;100.00;95390.56;4919167;29;20079;-40
2022/12/15 08:56:48;;;;;;;48.40;27.30;;;;;;;5.85;100.00;95394.44;4922817;29;20079;-40
2022/12/15 08:59:18;;;;;;;53.83;31.10;;;;;;;5.70;100.00;95404.50;4919466;29;20091;-46
2022/12/15 09:01:47;;;;;;;53.72;31.77;;;;;;;6.02;100.00;95419.06;4924446;29;20094;-41
2022/12/15 09:04:16;;;;;;;48.65;28.80;;;;;;;6.01;100.00;95422.63;4923749;29;20091;-42
2022/12/15 09:06:45;;;;;;;48.50;28.42;;;;;;;6.03;100.00;95414.66;4918819;29;20082;-46
2022/12/15 09:09:18;;;;;;;44.13;26.50;;;;;;;5.77;100.00;95417.03;4926957;29;20091;-42
2022/12/15 09:11:46;;;;;;;45.70;27.08;;;;;;;5.71;100.00;95411.41;4924795;29;20083;-42
2022/12/15 09:14:14;;;;;;;48.00;27.00;;;;;;;5.64;100.00;95412.09;4922736;29;20087;-47
2022/12/15 09:16:44;;;;;;;49.58;27.48;;;;;;;5.45;100.00;95402.50;4922317;29;20075;-42
2022/12/15 09:19:18;;;;;;;51.63;27.98;;;;;;;5.61;100.00;95401.91;4925724;29;20079;-42
2022/12/15 09:21:47;;;;;;;45.58;25.58;;;;;;;5.42;100.00;95397.53;4920185;29;20083;-41
2022/12/15 09:24:32;;;;;;;52.95;28.45;;;;;;;5.13;100.00;95397.56;4924856;29;20076;-45
2022/12/15 09:27:03;;;;;;;52.00;29.52;;;;;;;5.01;100.00;95394.22;4922691;29;20079;-40
2022/12/15 09:29:32;;;;;;;46.75;30.30;;;;;;;4.90;100.00;95394.38;4926473;29;20087;-46
2022/12/15 09:32:02;;;;;;;46.10;26.23;;;;;;;4.92;100.00;95390.66;4922820;29;20099;-44
2022/12/15 09:34:36;;;;;;;48.28;26.65;;;;;;;5.43;100.00;95384.31;4927460;29;20558;-48
2022/12/15 09:37:04;;;;;;;46.58;27.17;;;;;;;4.79;100.00;95371.81;4924606;29;20079;-43
2022/12/15 09:39:32;;;;;;;45.80;26.63;;;;;;;5.19;100.00;95356.00;4925180;29;20078;-40
2022/12/15 09:42:01;;;;;;;49.58;27.02;;;;;;;5.00;100.00;95358.63;4921199;29;20086;-47
2022/12/15 09:44:31;;;;;;;51.95;30.33;;;;;;;5.37;100.00;95357.94;4920490;29;20071;-46
2022/12/15 09:47:14;;;;;;;49.67;30.13;;;;;;;4.73;100.00;95360.13;4915206;29;20090;-42
2022/12/15 09:49:53;;;;;;;49.63;30.35;;;;;;;5.01;100.00;95352.44;4918983;29;20071;-40
2022/12/15 09:52:25;;;;;;;42.40;25.33;;;;;;;5.27;100.00;95347.47;4926145;29;20083;-43
2022/12/15 09:54:53;;;;;;;43.70;25.17;;;;;;;5.26;100.00;95347.59;4923106;29;20108;-41
2022/12/15 09:57:39;;;;;;;44.70;25.92;;;;;;;5.64;100.00;95341.47;4918125;29;20095;-46
2022/12/15 10:00:15;;;;;;;47.22;26.55;;;;;;;5.52;100.00;95346.06;4923506;29;20110;-49
2022/12/15 10:03:21;;;;;;;44.67;26.33;;;;;;;5.99;100.00;95348.72;4918384;29;20083;-40
2022/12/15 10:05:59;;;;;;;48.38;26.38;;;;;;;6.00;100.00;95339.06;4920128;29;20094;-43
2022/12/15 10:08:48;;;;;;;43.90;24.10;;;;;;;5.77;100.00;95349.84;4917595;29;20090;-42
2022/12/15 10:11:26;;;;;;;43.08;25.25;;;;;;;6.34;100.00;95345.38;4920408;29;20090;-41
2022/12/15 10:13:58;;;;;;;45.03;25.48;;;;;;;6.46;100.00;95326.84;4925133;29;20088;-43
2022/12/15 10:16:31;;;;;;;46.67;27.08;;;;;;;6.51;100.00;95328.06;4924428;29;20087;-49
2022/12/15 10:19:05;;;;;;;44.83;25.48;;;;;;;6.70;100.00;95321.84;4927058;29;20091;-47
2022/12/15 10:21:36;;;;;;;43.33;24.42;;;;;;;5.92;100.00;95322.28;4925213;29;20075;-42
2022/12/15 10:24:16;;;;;;;45.13;24.55;;;;;;;6.01;100.00;95322.38;4920770;29;20090;-43
2022/12/15 10:27:15;;;;;;;45.77;26.50;;;;;;;6.19;100.00;95325.88;4912571;29;20076;-47
2022/12/15 10:29:45;;;;;;;41.92;25.33;;;;;;;6.80;100.00;95325.22;4921141;29;20517;-42
2022/12/15 10:32:20;;;;;;;42.80;25.05;;;;;;;5.53;100.00;95339.03;4919516;29;20090;-43
2022/12/15 10:34:48;;;;;;;45.13;25.48;;;;;;;5.30;100.00;95334.13;4921722;29;20090;-48
2022/12/15 10:37:20;;;;;;;42.25;25.67;;;;;;;5.52;100.00;95332.97;4923461;29;20099;-42
2022/12/15 10:39:49;;;;;;;48.85;28.35;;;;;;;5.87;100.00;95319.22;4926164;29;20079;-45
2022/12/15 10:42:20;;;;;;;49.92;28.05;;;;;;;5.22;100.00;95320.94;4917619;29;20087;-41
2022/12/15 10:44:50;;;;;;;44.70;25.10;;;;;;;5.27;100.00;95321.34;4922065;29;20075;-44
2022/12/15 10:47:24;;;;;;;50.80;28.77;;;;;;;4.72;100.00;95318.50;4924844;29;20090;-41
2022/12/15 10:49:54;;;;;;;48.00;27.92;;;;;;;5.31;100.00;95312.25;4921979;29;20108;-46
2022/12/15 10:52:27;;;;;;;47.25;28.52;;;;;;;5.38;100.00;95329.03;4916078;29;20090;-41
2022/12/15 10:54:55;;;;;;;46.55;26.75;;;;;;;5.51;100.00;95333.97;4924858;29;20095;-43
2022/12/15 10:57:29;;;;;;;46.08;25.67;;;;;;;6.08;100.00;95329.50;4919243;29;20090;-40
2022/12/15 11:00:27;;;;;;;44.38;24.73;;;;;;;5.58;100.00;95340.28;4920147;29;20122;-44
2022/12/15 11:02:55;;;;;;;49.80;27.75;;;;;;;6.37;100.00;95318.91;4915817;29;20578;-43
2022/12/15 11:05:24;;;;;;;40.25;22.95;;;;;;;6.22;100.00;95309.06;4917966;29;20083;-43
2022/12/15 11:07:54;;;;;;;47.60;26.10;;;;;;;5.98;100.00;95312.19;4917802;29;20080;-39
2022/12/15 11:10:25;;;;;;;50.08;27.92;;;;;;;6.46;100.00;95298.84;4921758;29;20090;-40
2022/12/15 11:13:13;;;;;;;49.53;28.88;;;;;;;5.45;100.00;95303.13;4924313;29;20094;-42
2022/12/15 11:15:47;;;;;;;48.30;27.20;;;;;;;5.68;100.00;95272.25;4924976;29;20523;-41
2022/12/15 11:18:26;;;;;;;46.88;25.33;;;;;;;5.41;100.00;95268.63;4920277;29;20080;-42
2022/12/15 11:20:59;;;;;;;49.60;26.00;;;;;;;5.42;100.00;95282.50;4923541;29;20083;-42
2022/12/15 11:23:33;;;;;;;43.30;24.38;;;;;;;4.98;100.00;95290.84;4925675;29;20087;-41
2022/12/15 11:26:05;;;;;;;48.50;26.38;;;;;;;6.28;100.00;95284.91;4922306;29;20075;-42
2022/12/15 11:28:40;;;;;;;47.92;26.02;;;;;;;6.54;100.00;95288.47;4927063;29;20666;-43
2022/12/15 11:31:17;;;;;;;54.03;28.65;;;;;;;5.77;100.00;95286.25;4923943;29;20543;-44
2022/12/15 11:33:45;;;;;;;47.47;27.88;;;;;;;6.06;100.00;95286.16;4918202;29;20086;-45
2022/12/15 11:36:17;;;;;;;;;;;;;;;6.48;100.00;95270.72;4925313;29;20090;-42
2022/12/15 11:38:50;;;;;;;43.38;22.15;;;;;;;6.21;100.00;95271.59;4926586;29;19954;-40
2022/12/15 11:41:34;;;;;;;52.67;27.65;;;;;;;5.61;100.00;95276.38;4929570;29;20080;-42
2022/12/15 11:44:10;;;;;;;52.17;26.60;;;;;;;5.69;100.00;95279.94;4926710;29;20110;-45
2022/12/15 11:46:43;;;;;;;51.85;26.83;;;;;;;5.82;100.00;95282.25;4929453;29;20084;-45
2022/12/15 11:49:32;;;;;;;48.50;25.98;;;;;;;5.46;100.00;95271.63;4929589;29;20079;-39
2022/12/15 11:52:13;;;;;;;47.40;25.98;;;;;;;6.36;100.00;95248.34;4922975;29;20084;-41
2022/12/15 11:54:46;;;;;;;48.42;26.58;;;;;;;5.40;100.00;95250.44;4925441;29;20094;-44
2022/12/15 11:57:35;;;;;;;50.85;28.67;;;;;;;5.65;100.00;95254.22;4923478;29;20090;-44
2022/12/15 12:00:06;;;;;;;53.30;27.88;;;;;;;5.56;100.00;95261.13;4929304;29;20083;-40
2022/12/15 12:02:51;;;;;;;54.40;30.10;;;;;;;5.52;100.00;95270.22;4921288;29;20094;-41
2022/12/15 12:05:30;;;;;;;50.00;27.05;;;;;;;5.94;100.00;95268.00;4919765;29;20079;-42
2022/12/15 12:08:09;;;;;;;52.75;28.40;;;;;;;5.67;100.00;95265.34;4926262;29;20102;-43
2022/12/15 12:10:42;;;;;;;51.90;27.38;;;;;;;6.19;100.00;95276.13;4930454;29;20082;-40
2022/12/15 12:13:20;;;;;;;52.40;28.75;;;;;;;6.09;100.00;95289.31;4928316;29;20082;-40
2022/12/15 12:15:56;;;;;;;54.72;28.33;;;;;;;5.84;100.00;95282.91;4926877;29;20083;-39
2022/12/15 12:18:28;;;;;;;52.85;28.55;;;;;;;5.75;100.00;95269.84;4924095;29;20095;-42
2022/12/15 12:21:02;;;;;;;52.92;28.90;;;;;;;5.39;100.00;95288.03;4917001;29;20087;-43
2022/12/15 12:23:36;;;;;;;53.55;28.90;;;;;;;5.87;100.00;95277.38;4925914;29;20079;-40
2022/12/15 12:26:07;;;;;;;57.95;30.60;;;;;;;5.96;100.00;95257.41;4920593;29;20079;-42
2022/12/15 12:28:43;;;;;;;50.25;26.40;;;;;;;5.82;100.00;95250.84;4923973;29;20090;-44
2022/12/15 12:31:21;;;;;;;50.15;26.65;;;;;;;5.59;100.00;95242.53;4923594;29;20084;-45
2022/12/15 12:33:53;;;;;;;65.22;33.83;;;;;;;5.75;100.00;95231.47;4921105;29;20659;-42
2022/12/15 12:36:22;;;;;;;56.72;30.63;;;;;;;5.51;100.00;95221.53;4930180;29;20527;-47
2022/12/15 12:38:52;;;;;;;54.33;28.42;;;;;;;5.14;100.00;95216.28;4926446;29;20079;-48
2022/12/15 12:41:26;;;;;;;51.65;28.52;;;;;;;5.09;100.00;95206.25;4917330;29;20094;-43
2022/12/15 12:43:56;;;;;;;56.97;29.25;;;;;;;6.02;100.00;95196.66;4924125;29;20536;-43
2022/12/15 12:46:29;;;;;;;52.97;28.90;;;;;;;5.84;100.00;95185.28;4921064;29;20087;-41
2022/12/15 12:49:03;;;;;;;53.17;27.23;;;;;;;5.24;100.00;95178.69;4925017;29;20083;-42
2022/12/15 12:51:34;;;;;;;50.58;26.98;;;;;;;5.22;100.00;95178.00;4931390;29;20083;-42
2022/12/15 12:54:02;;;;;;;53.40;27.95;;;;;;;5.28;100.00;95179.25;4929194;29;20098;-40
2022/12/15 12:56:37;;;;;;;58.38;29.65;;;;;;;5.21;100.00;95183.41;4921040;29;20511;-45
2022/12/15 12:59:32;;;;;;;55.50;27.42;;;;;;;5.37;100.00;95181.00;4926255;29;20083;-39
2022/12/15 13:02:43;;;;;;;52.58;27.58;;;;;;;5.27;100.00;95182.81;4923537;29;20076;-44
2022/12/15 13:05:28;;;;;;;47.78;26.55;;;;;;;5.14;100.00;95182.31;4920392;29;20094;-40
2022/12/15 13:08:18;;;;;;;46.95;24.10;;;;;;;5.13;100.00;95196.38;4923121;29;20477;-40
2022/12/15 13:10:47;;;;;;;53.40;28.88;;;;;;;4.62;100.00;95208.00;4917812;29;20467;-40
2022/12/15 13:13:43;;;;;;;52.35;28.00;;;;;;;4.76;100.00;95218.84;4920881;29;20075;-44
2022/12/15 13:16:21;;;;;;;55.53;27.60;;;;;;;4.44;100.00;95213.94;4920467;29;20091;-46
2022/12/15 13:18:57;;;;;;;43.72;22.88;;;;;;;4.43;100.00;95220.09;4921252;29;20083;-46
2022/12/15 13:21:51;;;;;;;46.05;23.77;;;;;;;5.18;100.00;95202.78;4927132;29;20079;-46
2022/12/15 13:24:28;;;;;;;55.40;26.55;;;;;;;4.69;100.00;95202.09;4922439;29;20094;-39
2022/12/15 13:27:05;;;;;;;53.45;25.95;;;;;;;4.72;100.00;95214.03;4924861;29;20731;-44
2022/12/15 13:29:33;;;;;;;48.75;24.67;;;;;;;4.35;100.00;95208.69;4925322;29;20075;-40
2022/12/15 13:32:02;;;;;;;57.42;27.60;;;;;;;4.56;100.00;95209.38;4929136;29;20079;-41
2022/12/15 13:34:37;;;;;;;57.45;26.70;;;;;;;4.95;100.00;95215.34;4927313;29;20082;-40
2022/12/15 13:37:49;;;;;;;56.17;28.60;;;;;;;4.62;100.00;95213.22;4920368;29;20536;-40
2022/12/15 13:40:49;;;;;;;44.72;23.92;;;;;;;4.17;100.00;95211.16;4914989;29;20555;-41
2022/12/15 13:43:50;;;;;;;52.25;26.50;;;;;;;4.22;100.00;95204.56;4923256;29;20075;-39
2022/12/15 13:46:23;;;;;;;57.83;29.60;;;;;;;4.13;100.00;95194.13;4885711;29;20799;-43
2022/12/15 13:48:55;;;;;;;51.15;25.48;;;;;;;4.36;100.00;95195.50;4883746;29;20068;-40
2022/12/15 13:51:29;;;;;;;55.58;28.10;;;;;;;4.22;100.00;95188.91;4902276;29;20572;-41
2022/12/15 13:54:04;;;;;;;53.63;26.75;;;;;;;4.69;100.00;95183.81;4925718;29;20087;-42
2022/12/15 13:56:51;;;;;;;55.42;26.77;;;;;;;4.56;100.00;95177.22;4925005;29;20087;-43
2022/12/15 13:59:27;;;;;;;55.63;29.63;;;;;;;4.17;100.00;95175.47;4920417;29;20114;-43
2022/12/15 14:01:55;;;;;;;59.08;29.38;;;;;;;4.13;100.00;95168.03;4923273;29;20543;-40
2022/12/15 14:04:24;;;;;;;60.47;29.15;;;;;;;3.99;100.00;95164.88;4922447;29;20086;-47
2022/12/15 14:06:54;;;;;;;58.40;28.70;;;;;;;3.89;100.00;95171.03;4925544;29;20532;-42
2022/12/15 14:09:27;;;;;;;56.40;26.25;;;;;;;4.27;100.00;95160.63;4926006;29;20080;-46